createdAt,value
2022-12-17T00:00:41.869Z,-2.00
2022-12-17T00:03:31.554Z,-2.10
2022-12-17T00:06:17.111Z,-2.00
2022-12-17T00:09:02.472Z,-2.10
2022-12-17T00:11:47.991Z,-2.00
2022-12-17T00:14:33.510Z,-2.00
2022-12-17T00:17:18.840Z,-2.00
2022-12-17T00:20:06.518Z,-2.10
2022-12-17T00:22:51.812Z,-2.10
2022-12-17T00:25:38.906Z,-2.10
2022-12-17T00:28:28.571Z,-2.60
2022-12-17T00:31:14.133Z,-2.20
2022-12-17T00:33:59.574Z,-2.20
2022-12-17T00:36:46.155Z,-2.20
2022-12-17T00:39:31.727Z,-2.20
2022-12-17T00:42:17.331Z,-2.20
2022-12-17T00:45:03.142Z,-2.30
2022-12-17T00:47:48.573Z,-2.30
2022-12-17T00:50:34.125Z,-2.30
2022-12-17T00:53:17.154Z,-2.30
2022-12-17T00:56:02.535Z,-2.30
2022-12-17T00:58:48.032Z,-2.30
2022-12-17T05:03:23.158Z,-4.70
2022-12-17T05:06:08.493Z,-4.70
2022-12-17T05:08:53.963Z,-4.70
2022-12-17T05:11:41.677Z,-4.80
2022-12-17T05:14:27.124Z,-4.80
2022-12-17T05:17:12.571Z,-4.80
2022-12-17T05:19:59.300Z,-4.80
2022-12-17T05:22:56.247Z,-4.80
2022-12-17T05:25:41.429Z,-4.80
2022-12-17T05:28:28.623Z,-4.80
2022-12-17T05:31:14.509Z,-4.90
2022-12-17T05:34:00.261Z,-4.90
2022-12-17T05:36:46.983Z,-5.00
2022-12-17T05:39:32.598Z,-5.00
2022-12-17T05:42:18.023Z,-5.00
2022-12-17T05:45:03.653Z,-5.00
2022-12-17T05:47:49.040Z,-5.10
2022-12-17T05:53:25.232Z,-5.10
2022-12-17T05:56:11.580Z,-5.10
2022-12-17T05:58:57.552Z,-5.10
2022-12-17T06:01:43.172Z,-5.00
2022-12-17T06:04:28.811Z,-5.00
2022-12-17T06:07:14.500Z,-4.90
2022-12-17T06:10:01.357Z,-4.90
2022-12-17T06:12:46.912Z,-4.80
2022-12-17T06:15:32.447Z,-4.80
2022-12-17T06:18:17.939Z,-4.70
2022-12-17T06:21:03.315Z,-4.80
2022-12-17T06:24:00.279Z,-4.80
2022-12-17T06:26:52.050Z,-4.80
2022-12-17T06:32:23.422Z,-4.80
2022-12-17T06:35:17.224Z,-4.80
2022-12-17T06:38:02.575Z,-4.80
2022-12-17T06:40:48.143Z,-4.60
2022-12-17T06:43:35.242Z,-4.60
2022-12-17T06:46:20.946Z,-4.60
2022-12-17T06:49:06.394Z,-4.50
2022-12-17T06:51:51.753Z,-4.50
2022-12-17T06:54:37.163Z,-4.40
2022-12-17T06:57:22.364Z,-4.40
2022-12-17T07:00:09.139Z,-4.40
2022-12-17T07:02:54.918Z,-4.30
2022-12-17T07:05:40.197Z,-4.20
2022-12-17T07:08:25.592Z,-4.20
2022-12-17T07:11:10.914Z,-4.10
2022-12-17T07:13:56.393Z,-4.10
2022-12-17T07:16:43.256Z,-4.10
2022-12-17T07:19:28.630Z,-4.00
2022-12-17T07:22:14.422Z,-4.10
2022-12-17T07:25:00.058Z,-4.10
2022-12-17T07:27:45.621Z,-4.10
2022-12-17T07:30:31.494Z,-4.10
2022-12-17T07:33:18.997Z,-4.10
2022-12-17T07:36:04.375Z,-4.10
2022-12-17T07:38:49.849Z,-4.10
2022-12-17T07:41:35.138Z,-4.00
2022-12-17T07:44:20.564Z,-4.10
2022-12-17T07:47:05.990Z,-4.10
2022-12-17T07:49:52.803Z,-4.00
2022-12-17T07:52:38.348Z,-4.10
2022-12-17T07:55:24.053Z,-4.00
2022-12-17T07:58:16.935Z,-4.00
2022-12-17T08:01:02.506Z,-4.00
2022-12-17T08:03:48.065Z,-4.00
2022-12-17T08:06:34.911Z,-4.00
2022-12-17T08:09:20.396Z,-4.00
2022-12-17T08:12:05.796Z,-4.00
2022-12-17T08:17:37.255Z,-4.10
2022-12-17T08:20:23.509Z,-4.20
2022-12-17T08:23:10.213Z,-4.30
2022-12-17T08:25:55.827Z,-4.20
2022-12-17T08:28:50.515Z,-4.10
2022-12-17T08:31:36.642Z,-4.10
2022-12-17T08:34:21.886Z,-4.20
2022-12-17T08:37:07.240Z,-4.10
2022-12-17T08:39:53.176Z,-4.00
2022-12-17T08:42:38.709Z,-4.00
2022-12-17T08:45:24.919Z,-3.90
2022-12-17T08:48:10.440Z,-4.50
2022-12-17T08:50:55.998Z,-3.80
2022-12-17T08:53:41.843Z,-3.80
2022-12-17T08:56:40.523Z,-3.80
2022-12-17T08:59:26.324Z,-3.80
2022-12-17T09:02:11.884Z,-3.80
2022-12-17T09:04:57.471Z,-3.80
2022-12-17T09:07:42.863Z,-3.90
2022-12-17T09:10:28.606Z,-3.90
2022-12-17T09:13:19.493Z,-3.80
2022-12-17T09:16:10.521Z,-3.80
2022-12-17T09:18:56.042Z,-3.80
2022-12-17T09:21:41.617Z,-3.80
2022-12-17T09:24:28.202Z,-3.90
2022-12-17T09:27:13.888Z,-3.90
2022-12-17T09:30:01.063Z,-3.80
2022-12-17T09:32:46.579Z,-3.80
2022-12-17T09:35:32.047Z,-3.80
2022-12-17T09:38:17.528Z,-3.70
2022-12-17T09:41:06.975Z,-3.70
2022-12-17T09:44:01.470Z,-3.70
2022-12-17T09:46:55.493Z,-3.60
2022-12-17T09:49:43.244Z,-3.70
2022-12-17T09:52:37.558Z,-3.70
2022-12-17T09:55:36.206Z,-3.80
2022-12-17T09:58:22.097Z,-3.80
2022-12-17T10:01:08.894Z,-3.80
2022-12-17T10:04:05.076Z,-3.90
2022-12-17T10:06:51.942Z,-3.90
2022-12-17T10:09:38.069Z,-3.90
2022-12-17T10:12:31.515Z,-3.90
2022-12-17T10:15:17.082Z,-3.80
2022-12-17T10:18:02.505Z,-3.90
2022-12-17T10:21:08.699Z,-3.90
2022-12-17T10:23:53.991Z,-3.80
2022-12-17T10:26:42.338Z,-3.80
2022-12-17T10:29:30.539Z,-3.70
2022-12-17T10:32:20.887Z,-3.70
2022-12-17T10:35:13.496Z,-3.70
2022-12-17T10:38:05.584Z,-3.70
2022-12-17T10:40:51.999Z,-3.60
2022-12-17T10:44:01.551Z,-3.60
2022-12-17T10:46:48.427Z,-3.60
2022-12-17T10:49:36.204Z,-3.50
2022-12-17T10:52:25.194Z,-3.40
2022-12-17T10:55:17.882Z,-3.40
2022-12-17T10:58:05.344Z,-3.40
2022-12-17T11:00:52.044Z,-3.40
2022-12-17T11:03:50.331Z,-3.40
2022-12-17T11:06:42.834Z,-3.30
2022-12-17T11:09:40.193Z,-3.30
2022-12-17T11:12:35.371Z,-3.20
2022-12-17T11:15:30.032Z,-3.20
2022-12-17T11:18:15.806Z,-3.20
2022-12-17T11:21:07.265Z,-3.10
2022-12-17T11:23:54.654Z,-3.10
2022-12-17T11:26:40.647Z,-3.10
2022-12-17T11:29:31.832Z,-3.00
2022-12-17T11:32:40.079Z,-3.10
2022-12-17T11:35:35.330Z,-3.10
2022-12-17T11:38:27.703Z,-3.00
2022-12-17T11:41:17.507Z,-2.90
2022-12-17T11:44:12.628Z,-2.90
2022-12-17T11:47:08.240Z,-2.80
2022-12-17T11:50:00.708Z,-2.70
2022-12-17T11:52:54.576Z,-2.60
2022-12-17T11:55:49.390Z,-2.70
2022-12-17T11:58:41.376Z,-2.70
2022-12-17T12:01:35.984Z,-2.70
2022-12-17T12:04:39.665Z,-2.60
2022-12-17T12:07:35.650Z,-2.60
2022-12-17T12:10:24.701Z,-2.60
2022-12-17T12:13:23.556Z,-2.60
2022-12-17T12:16:20.945Z,-2.50
2022-12-17T12:19:16.103Z,-2.40
2022-12-17T12:22:30.753Z,-2.40
2022-12-17T12:25:38.862Z,-2.40
2022-12-17T12:28:31.937Z,-2.30
2022-12-17T12:31:28.053Z,-2.30
2022-12-17T12:34:17.377Z,-2.30
2022-12-17T12:37:06.026Z,-2.20
2022-12-17T12:39:57.520Z,-2.20
2022-12-17T12:42:48.950Z,-2.20
2022-12-17T12:46:00.868Z,-2.30
2022-12-17T12:49:03.286Z,-2.30
2022-12-17T12:51:52.530Z,-2.30
2022-12-17T12:54:47.791Z,-2.30
2022-12-17T12:57:47.886Z,-2.30
2022-12-17T13:00:48.553Z,-2.20
2022-12-17T13:03:53.301Z,-2.20
2022-12-17T13:06:40.459Z,-2.20
2022-12-17T13:09:37.722Z,-2.20
2022-12-17T13:12:29.594Z,-2.20
2022-12-17T13:15:10.473Z,-2.30
2022-12-17T13:17:41.943Z,-2.30
2022-12-17T13:20:26.295Z,-2.30
2022-12-17T13:23:07.999Z,-2.40
2022-12-17T13:25:37.876Z,-2.40
2022-12-17T13:28:06.979Z,-2.40
2022-12-17T13:30:37.546Z,-2.40
2022-12-17T13:33:25.437Z,-2.40
2022-12-17T13:36:04.237Z,-2.30
2022-12-17T13:38:40.493Z,-2.30
2022-12-17T13:41:12.961Z,-2.30
2022-12-17T13:43:44.448Z,-4.10
2022-12-17T13:46:20.450Z,-2.30
2022-12-17T13:48:54.876Z,-2.20
2022-12-17T13:51:24.163Z,-2.30
2022-12-17T13:53:59.213Z,-2.30
2022-12-17T13:56:30.800Z,-2.30
2022-12-17T13:59:08.161Z,-2.30
2022-12-17T14:01:45.497Z,-2.30
2022-12-17T14:04:22.436Z,-2.30
2022-12-17T14:06:51.519Z,-2.30
2022-12-17T14:09:22.350Z,-2.40
2022-12-17T14:12:09.490Z,-2.40
2022-12-17T14:14:39.495Z,-2.40
2022-12-17T14:17:08.310Z,-2.40
2022-12-17T14:19:37.660Z,-2.40
2022-12-17T14:22:06.100Z,-2.50
2022-12-17T14:24:34.232Z,-2.60
2022-12-17T14:27:03.383Z,-2.60
2022-12-17T14:29:32.509Z,-2.60
2022-12-17T14:32:02.448Z,-2.60
2022-12-17T14:34:43.358Z,-2.60
2022-12-17T14:37:18.234Z,-2.60
2022-12-17T14:39:48.818Z,-2.60
2022-12-17T14:42:29.468Z,-2.70
2022-12-17T14:44:59.956Z,-2.70
2022-12-17T14:47:30.007Z,-2.70
2022-12-17T14:50:05.227Z,-2.70
2022-12-17T14:52:40.380Z,-2.70
2022-12-17T14:55:55.398Z,-2.70
2022-12-17T14:58:26.901Z,-2.70
2022-12-17T15:00:59.288Z,-2.70
2022-12-17T15:03:29.919Z,-2.70
2022-12-17T15:05:59.663Z,-2.70
2022-12-17T15:08:31.150Z,-2.70
2022-12-17T15:10:59.183Z,-2.80
2022-12-17T15:13:28.630Z,-2.90
2022-12-17T15:15:57.413Z,-2.90
2022-12-17T15:18:26.231Z,-3.00
2022-12-17T15:20:54.121Z,-2.90
2022-12-17T15:23:24.834Z,-3.00
2022-12-17T15:25:54.064Z,-3.00
2022-12-17T15:28:22.866Z,-3.00
2022-12-17T15:30:52.074Z,-3.00
2022-12-17T15:33:20.058Z,-3.10
2022-12-17T15:35:48.076Z,-3.10
2022-12-17T15:38:15.939Z,-3.10
2022-12-17T15:40:43.892Z,-3.20
2022-12-17T15:43:11.835Z,-3.20
2022-12-17T15:45:41.063Z,-3.20
2022-12-17T15:50:39.257Z,-3.30
2022-12-17T15:53:07.712Z,-3.30
2022-12-17T15:55:35.985Z,-3.30
2022-12-17T15:58:04.159Z,-3.30
2022-12-17T16:00:32.254Z,-3.30
2022-12-17T16:03:00.353Z,-3.30
2022-12-17T16:05:29.951Z,-3.30
2022-12-17T16:08:02.148Z,-3.40
2022-12-17T16:10:30.848Z,-3.50
2022-12-17T16:15:27.182Z,-3.50
2022-12-17T16:17:55.414Z,-3.50
2022-12-17T16:20:24.722Z,-3.40
2022-12-17T16:22:53.910Z,-3.40
2022-12-17T16:25:21.819Z,-3.40
2022-12-17T16:27:49.579Z,-3.40
2022-12-17T16:30:17.579Z,-3.40
2022-12-17T16:32:45.568Z,-3.50
2022-12-17T16:35:14.016Z,-3.60
2022-12-17T16:37:42.118Z,-3.50
2022-12-17T16:40:12.723Z,-3.50
2022-12-17T16:42:40.656Z,-3.50
2022-12-17T16:45:09.709Z,-3.50
2022-12-17T16:47:37.564Z,-3.50
2022-12-17T16:50:06.526Z,-3.50
2022-12-17T16:52:35.066Z,-3.50
2022-12-17T16:55:03.073Z,-3.50
2022-12-17T16:57:32.420Z,-3.50
2022-12-17T17:00:00.385Z,-3.50
2022-12-17T17:02:28.309Z,-3.50
2022-12-17T17:04:56.263Z,-3.50
2022-12-17T17:07:24.013Z,-3.50
2022-12-17T17:09:51.872Z,-3.50
2022-12-17T17:12:19.864Z,-3.50
2022-12-17T17:14:51.864Z,-3.50
2022-12-17T17:17:19.767Z,-3.60
2022-12-17T17:20:08.151Z,-3.90
2022-12-17T17:22:36.003Z,-3.60
2022-12-17T17:25:04.023Z,-3.70
2022-12-17T17:27:32.468Z,-3.70
2022-12-17T17:30:03.957Z,-3.70
2022-12-17T17:32:32.141Z,-3.70
2022-12-17T17:35:00.056Z,-3.70
2022-12-17T17:37:27.908Z,-3.40
2022-12-17T17:39:55.832Z,-3.00
2022-12-17T17:42:24.023Z,-3.80
2022-12-17T17:44:52.299Z,-3.80
2022-12-17T17:47:21.536Z,-3.80
2022-12-17T17:49:49.312Z,-2.40
2022-12-17T17:52:17.808Z,-3.80
2022-12-17T17:54:45.665Z,-3.80
2022-12-17T17:57:13.479Z,-3.80
2022-12-17T17:59:41.390Z,-3.80
2022-12-17T18:02:11.754Z,-3.80
2022-12-17T18:04:41.170Z,-3.80
2022-12-17T18:07:26.027Z,-3.70
2022-12-17T18:09:54.476Z,-3.80
2022-12-17T18:12:39.912Z,-3.80
2022-12-17T18:15:17.744Z,-3.90
2022-12-17T18:17:47.572Z,-3.90
2022-12-17T18:20:17.478Z,-3.90
2022-12-17T18:22:46.961Z,-4.00
2022-12-17T18:25:15.953Z,-4.00
2022-12-17T18:27:44.031Z,-4.00
2022-12-17T18:30:12.651Z,-4.00
2022-12-17T18:32:40.920Z,-4.00
2022-12-17T18:35:09.787Z,-4.10
2022-12-17T18:37:39.516Z,-4.10
2022-12-17T18:40:08.978Z,-4.20
2022-12-17T18:42:54.499Z,-4.20
2022-12-17T18:45:22.275Z,-3.90
2022-12-17T18:47:51.533Z,-4.20
2022-12-17T18:50:19.460Z,-4.20
2022-12-17T18:52:48.772Z,-4.30
2022-12-17T18:55:17.324Z,-4.30
2022-12-17T18:57:45.304Z,-4.40
2022-12-17T19:00:14.613Z,-4.50
2022-12-17T19:02:42.479Z,-4.50
2022-12-17T19:05:10.816Z,-4.50
2022-12-17T19:07:38.879Z,-4.60
2022-12-17T19:10:09.195Z,-4.70
2022-12-17T19:12:37.045Z,-4.70
2022-12-17T19:15:05.328Z,-4.80
2022-12-17T19:20:01.548Z,-4.90
2022-12-17T19:22:29.343Z,-4.80
2022-12-17T19:24:57.211Z,-4.80
2022-12-17T19:27:26.443Z,-4.80
2022-12-17T19:29:56.344Z,-4.80
2022-12-17T19:32:24.787Z,-4.70
2022-12-17T19:34:52.677Z,-4.70
2022-12-17T19:37:20.546Z,-4.70
2022-12-17T19:39:48.537Z,-4.70
2022-12-17T19:42:25.449Z,-4.70
2022-12-17T19:47:23.887Z,-4.60
2022-12-17T19:49:52.069Z,-4.60
2022-12-17T19:52:19.900Z,-4.60
2022-12-17T19:54:47.760Z,-4.60
2022-12-17T20:02:15.551Z,-4.70
2022-12-17T20:04:43.577Z,-3.40
2022-12-17T20:07:11.343Z,-4.60
2022-12-17T20:09:40.353Z,-4.60
2022-12-17T20:12:09.176Z,-4.60
2022-12-17T20:17:06.493Z,-4.60
2022-12-17T20:19:35.717Z,-4.60
2022-12-17T20:22:06.381Z,-4.70
2022-12-17T20:24:34.227Z,-4.70
2022-12-17T20:27:02.316Z,-4.70
2022-12-17T20:29:30.576Z,-4.80
2022-12-17T20:32:01.010Z,-4.70
2022-12-17T20:34:29.928Z,-4.70
2022-12-17T20:36:59.083Z,-4.70
2022-12-17T20:42:04.217Z,-4.70
2022-12-17T20:44:31.953Z,-4.80
2022-12-17T20:47:01.206Z,-4.70
2022-12-17T20:49:28.937Z,-4.70
2022-12-17T20:51:56.741Z,-4.70
2022-12-17T20:54:25.949Z,-4.80
2022-12-17T20:56:53.833Z,-4.80
2022-12-17T20:59:22.075Z,-4.80
2022-12-17T21:01:55.625Z,-4.70
2022-12-17T21:06:55.254Z,-4.70
2022-12-17T21:09:28.069Z,-4.70
2022-12-17T21:11:57.258Z,-4.70
2022-12-17T21:14:26.391Z,-4.80
2022-12-17T21:16:57.185Z,-4.80
2022-12-17T21:19:25.217Z,-4.70
2022-12-17T21:21:53.081Z,-4.80
2022-12-17T21:24:20.808Z,-4.80
2022-12-17T21:26:48.893Z,-4.80
2022-12-17T21:29:18.386Z,-4.80
2022-12-17T21:31:48.062Z,-4.80
2022-12-17T21:34:17.950Z,-4.80
2022-12-17T21:36:45.951Z,-4.80
2022-12-17T21:39:15.101Z,-4.80
2022-12-17T21:42:05.100Z,-4.90
2022-12-17T21:47:03.227Z,-4.90
2022-12-17T21:52:00.339Z,-4.90
2022-12-17T21:54:28.330Z,-4.90
2022-12-17T21:56:56.138Z,-4.90
2022-12-17T21:59:24.040Z,-3.80
2022-12-17T22:01:57.089Z,-4.90
2022-12-17T22:04:26.006Z,-4.90
2022-12-17T22:07:12.080Z,-4.80
2022-12-17T22:10:15.558Z,-4.90
2022-12-17T22:12:46.966Z,-4.90
2022-12-17T22:15:14.796Z,-4.90
2022-12-17T22:17:44.518Z,-5.00
2022-12-17T22:20:13.040Z,-5.00
2022-12-17T22:22:40.829Z,-5.10
2022-12-17T22:25:10.989Z,-5.10
2022-12-17T22:27:40.426Z,-5.10
2022-12-17T22:30:31.108Z,-5.20
2022-12-17T22:33:00.591Z,-5.20
2022-12-17T22:36:54.567Z,-5.10
2022-12-17T22:43:27.412Z,-5.20
2022-12-17T22:44:31.721Z,-5.10
2022-12-17T22:44:43.913Z,-5.10
2022-12-17T22:47:09.720Z,-5.20
2022-12-17T22:49:40.442Z,-5.10
2022-12-17T22:52:10.323Z,-5.10
2022-12-17T22:54:38.504Z,-5.10
2022-12-17T22:57:35.158Z,-5.20
2022-12-17T22:59:54.236Z,-5.20
2022-12-17T23:02:22.127Z,-5.20
2022-12-17T23:04:51.339Z,-5.20
2022-12-17T23:07:19.163Z,-5.30
2022-12-17T23:09:46.932Z,-5.20
2022-12-17T23:12:32.164Z,-5.20
2022-12-17T23:17:28.042Z,-5.30
2022-12-17T23:19:57.316Z,-5.30
2022-12-17T23:22:25.117Z,-5.30
2022-12-17T23:24:52.852Z,-5.20
2022-12-17T23:27:20.585Z,-5.30
2022-12-17T23:29:48.437Z,-5.30
2022-12-17T23:32:16.850Z,-5.30
2022-12-17T23:34:44.708Z,-5.30
2022-12-17T23:37:13.775Z,-5.30
2022-12-17T23:39:41.564Z,-5.30
2022-12-17T23:42:09.409Z,-5.30
2022-12-17T23:44:37.159Z,-5.30
2022-12-17T23:47:05.046Z,-5.40
2022-12-17T23:49:32.934Z,-5.40
2022-12-17T23:52:00.761Z,-5.40
2022-12-17T23:54:30.139Z,-5.40
2022-12-17T23:56:57.937Z,-5.40
2022-12-17T23:59:25.736Z,-5.40
